createdAt,value
2022-08-04T00:02:02.619Z,22.43
2022-08-04T00:04:35.611Z,22.34
2022-08-04T00:07:11.721Z,22.33
2022-08-04T00:09:53.323Z,22.16
2022-08-04T00:12:31.275Z,22.24
2022-08-04T00:15:00.256Z,22.14
2022-08-04T00:17:32.848Z,22.21
2022-08-04T00:20:04.989Z,22.16
2022-08-04T00:22:34.728Z,22.05
2022-08-04T00:25:05.388Z,21.96
2022-08-04T00:27:33.278Z,21.93
2022-08-04T00:30:05.023Z,22.19
2022-08-04T00:32:34.491Z,22.03
2022-08-04T00:35:02.194Z,22.10
2022-08-04T00:37:29.028Z,22.04
2022-08-04T00:39:57.057Z,22.10
2022-08-04T00:42:30.774Z,22.06
2022-08-04T00:45:29.216Z,21.88
2022-08-04T00:48:33.697Z,21.77
2022-08-04T00:51:30.311Z,21.93
2022-08-04T00:54:24.026Z,21.62
2022-08-04T00:57:33.802Z,21.82
2022-08-04T01:00:12.049Z,21.81
2022-08-04T01:03:10.559Z,21.77
2022-08-04T01:06:00.638Z,21.71
2022-08-04T01:08:36.473Z,21.72
2022-08-04T01:11:56.931Z,21.93
2022-08-04T01:14:52.931Z,21.81
2022-08-04T01:17:33.691Z,21.83
2022-08-04T01:20:07.536Z,21.66
2022-08-04T01:22:34.076Z,21.78
2022-08-04T01:25:39.091Z,21.89
2022-08-04T01:28:06.411Z,21.96
2022-08-04T01:30:34.038Z,22.15
2022-08-04T01:33:14.453Z,22.23
2022-08-04T01:36:02.292Z,21.92
2022-08-04T01:38:34.149Z,21.95
2022-08-04T01:41:05.914Z,21.78
2022-08-04T01:43:40.917Z,21.63
2022-08-04T01:46:11.971Z,21.77
2022-08-04T01:48:45.539Z,21.66
2022-08-04T01:51:12.485Z,21.43
2022-08-04T01:53:42.441Z,21.34
2022-08-04T01:56:10.995Z,21.45
2022-08-04T01:58:40.179Z,21.28
2022-08-04T02:01:09.890Z,21.35
2022-08-04T02:04:20.162Z,21.26
2022-08-04T02:06:31.621Z,21.29
2022-08-04T02:09:27.572Z,21.17
2022-08-04T02:12:29.579Z,21.20
2022-08-04T02:15:17.513Z,21.05
2022-08-04T02:17:44.146Z,21.05
2022-08-04T02:20:25.838Z,20.86
2022-08-04T02:23:27.543Z,20.90
2022-08-04T02:26:22.502Z,20.93
2022-08-04T02:29:11.135Z,21.00
2022-08-04T02:31:56.643Z,21.05
2022-08-04T02:35:08.303Z,20.93
2022-08-04T02:37:36.265Z,20.85
2022-08-04T02:40:07.074Z,20.84
2022-08-04T02:42:34.196Z,20.73
2022-08-04T02:45:01.723Z,20.65
2022-08-04T02:48:08.106Z,20.79
2022-08-04T02:50:28.239Z,20.80
2022-08-04T02:53:00.624Z,20.75
2022-08-04T02:55:29.891Z,20.64
2022-08-04T02:57:59.461Z,20.56
2022-08-04T03:00:26.927Z,20.77
2022-08-04T03:03:02.564Z,20.84
2022-08-04T03:06:13.907Z,20.75
2022-08-04T03:09:18.469Z,20.76
2022-08-04T03:12:05.972Z,20.77
2022-08-04T03:15:15.852Z,20.79
2022-08-04T03:17:53.519Z,20.71
2022-08-04T03:21:05.801Z,20.58
2022-08-04T03:23:57.066Z,20.63
2022-08-04T03:26:52.486Z,20.65
2022-08-04T03:29:55.478Z,20.66
2022-08-04T03:32:52.566Z,20.62
2022-08-04T03:35:41.143Z,20.60
2022-08-04T03:38:41.442Z,20.64
2022-08-04T03:41:50.872Z,20.72
2022-08-04T03:44:41.579Z,20.72
2022-08-04T03:47:42.240Z,20.74
2022-08-04T03:50:41.486Z,20.71
2022-08-04T03:53:33.138Z,20.66
2022-08-04T03:56:11.781Z,20.75
2022-08-04T03:58:41.412Z,20.81
2022-08-04T04:01:14.067Z,20.84
2022-08-04T04:03:43.624Z,20.87
2022-08-04T04:06:19.331Z,20.83
2022-08-04T04:09:24.714Z,20.94
2022-08-04T04:12:23.720Z,21.05
2022-08-04T04:15:05.535Z,21.07
2022-08-04T04:18:09.652Z,21.09
2022-08-04T04:21:02.611Z,21.21
2022-08-04T04:23:44.177Z,21.32
2022-08-04T04:26:39.120Z,21.40
2022-08-04T04:29:29.711Z,21.42
2022-08-04T04:32:14.858Z,21.60
2022-08-04T04:35:11.440Z,21.70
2022-08-04T04:37:48.711Z,21.91
2022-08-04T04:40:32.927Z,22.07
2022-08-04T04:43:02.791Z,22.26
2022-08-04T04:45:56.979Z,22.40
2022-08-04T04:48:41.858Z,22.54
2022-08-04T04:51:34.053Z,22.75
2022-08-04T04:54:17.628Z,22.89
2022-08-04T04:56:48.895Z,22.98
2022-08-04T04:59:22.185Z,23.00
2022-08-04T05:02:10.805Z,23.21
2022-08-04T05:05:22.728Z,23.42
2022-08-04T05:07:53.233Z,23.57
2022-08-04T05:10:51.463Z,23.67
2022-08-04T05:14:34.479Z,23.86
2022-08-04T05:16:34.544Z,24.04
2022-08-04T05:19:24.933Z,24.06
2022-08-04T05:21:59.875Z,24.27
2022-08-04T05:24:29.352Z,24.37
2022-08-04T05:27:06.291Z,24.61
2022-08-04T05:29:37.371Z,24.92
2022-08-04T05:32:14.360Z,24.45
2022-08-04T05:34:48.114Z,24.88
2022-08-04T05:37:20.793Z,25.32
2022-08-04T05:39:56.010Z,25.81
2022-08-04T05:42:23.431Z,26.19
2022-08-04T05:44:52.100Z,26.76
2022-08-04T05:47:21.630Z,27.23
2022-08-04T05:49:55.660Z,27.61
2022-08-04T05:52:31.088Z,28.08
2022-08-04T05:55:00.577Z,27.88
2022-08-04T05:57:28.598Z,27.87
2022-08-04T05:59:57.602Z,28.32
2022-08-04T06:02:25.736Z,28.64
2022-08-04T06:04:53.823Z,28.63
2022-08-04T06:07:20.989Z,28.75
2022-08-04T06:09:48.417Z,28.61
2022-08-04T06:12:31.058Z,28.91
2022-08-04T06:15:00.196Z,28.59
2022-08-04T06:18:33.146Z,28.35
2022-08-04T06:20:22.822Z,28.29
2022-08-04T06:22:54.592Z,28.55
2022-08-04T06:25:25.924Z,29.05
2022-08-04T06:27:54.561Z,29.09
2022-08-04T06:30:28.412Z,28.93
2022-08-04T06:33:03.638Z,28.99
2022-08-04T06:35:32.692Z,29.15
2022-08-04T06:38:01.611Z,29.14
2022-08-04T06:40:31.736Z,29.28
2022-08-04T06:43:02.042Z,29.35
2022-08-04T06:45:29.852Z,29.44
2022-08-04T06:47:56.835Z,29.74
2022-08-04T06:51:26.688Z,30.00
2022-08-04T06:53:11.774Z,30.30
2022-08-04T06:55:40.988Z,30.55
2022-08-04T06:58:08.434Z,30.96
2022-08-04T07:00:38.000Z,31.15
2022-08-04T07:03:05.838Z,31.00
2022-08-04T07:05:33.032Z,30.64
2022-08-04T07:08:01.357Z,30.49
2022-08-04T07:10:28.740Z,30.83
2022-08-04T07:12:57.357Z,30.99
2022-08-04T07:15:25.014Z,31.08
2022-08-04T07:17:53.315Z,31.35
2022-08-04T07:20:34.225Z,30.72
2022-08-04T07:23:07.144Z,30.82
2022-08-04T07:25:59.509Z,31.28
2022-08-04T07:28:27.745Z,31.49
2022-08-04T07:30:56.099Z,31.49
2022-08-04T07:33:23.347Z,31.26
2022-08-04T07:36:04.546Z,31.19
2022-08-04T07:38:37.518Z,31.71
2022-08-04T07:44:00.397Z,31.04
2022-08-04T07:46:27.335Z,31.03
2022-08-04T07:48:59.859Z,30.80
2022-08-04T07:51:27.218Z,30.59
2022-08-04T07:53:56.586Z,30.27
2022-08-04T07:56:23.882Z,30.40
2022-08-04T07:58:50.733Z,30.96
2022-08-04T08:01:19.042Z,31.23
2022-08-04T08:03:47.393Z,31.41
2022-08-04T08:06:31.376Z,30.76
2022-08-04T08:09:13.264Z,30.96
2022-08-04T08:12:38.720Z,31.52
2022-08-04T08:14:37.205Z,31.47
2022-08-04T08:17:05.167Z,31.25
2022-08-04T08:19:33.247Z,30.92
2022-08-04T08:22:01.397Z,30.83
2022-08-04T08:24:34.898Z,31.26
2022-08-04T08:27:04.414Z,31.67
2022-08-04T08:29:34.061Z,32.04
2022-08-04T08:32:07.885Z,32.18
2022-08-04T08:34:36.143Z,32.17
2022-08-04T08:37:15.121Z,32.68
2022-08-04T08:39:47.755Z,32.66
2022-08-04T08:42:17.341Z,33.08
2022-08-04T08:45:12.718Z,33.15
2022-08-04T08:48:00.110Z,33.19
2022-08-04T08:51:07.580Z,32.40
2022-08-04T08:54:13.240Z,32.17
2022-08-04T08:56:48.274Z,32.17
2022-08-04T08:59:53.800Z,32.49
2022-08-04T09:02:45.467Z,32.99
2022-08-04T09:05:43.501Z,32.47
2022-08-04T09:08:21.004Z,32.64
2022-08-04T09:11:12.790Z,32.16
2022-08-04T09:13:56.492Z,31.88
2022-08-04T09:16:49.381Z,32.28
2022-08-04T09:19:38.935Z,32.49
2022-08-04T09:22:15.497Z,32.94
2022-08-04T09:25:02.997Z,33.40
2022-08-04T09:27:35.923Z,33.64
2022-08-04T09:30:12.429Z,34.03
2022-08-04T09:32:41.613Z,33.87
2022-08-04T09:35:13.330Z,34.28
2022-08-04T09:38:00.733Z,34.71
2022-08-04T09:40:53.040Z,34.88
2022-08-04T09:44:01.201Z,34.97
2022-08-04T09:47:07.489Z,34.56
2022-08-04T09:49:41.634Z,33.98
2022-08-04T09:52:21.326Z,33.08
2022-08-04T09:55:16.974Z,32.39
2022-08-04T09:57:55.676Z,31.80
2022-08-04T10:00:36.357Z,32.02
2022-08-04T10:03:13.774Z,32.45
2022-08-04T10:05:48.345Z,32.49
2022-08-04T10:08:35.236Z,32.58
2022-08-04T10:11:14.817Z,32.54
2022-08-04T10:14:02.593Z,31.89
2022-08-04T10:17:12.384Z,31.89
2022-08-04T10:19:41.959Z,32.06
2022-08-04T10:22:27.967Z,32.30
2022-08-04T10:26:06.178Z,32.10
2022-08-04T10:28:32.344Z,32.17
2022-08-04T10:31:04.602Z,32.21
2022-08-04T10:33:53.242Z,32.27
2022-08-04T10:36:24.085Z,32.32
2022-08-04T10:39:00.254Z,32.48
2022-08-04T10:41:35.932Z,33.00
2022-08-04T10:44:23.531Z,33.21
2022-08-04T10:46:55.850Z,33.59
2022-08-04T10:49:44.996Z,33.64
2022-08-04T10:52:22.904Z,33.85
2022-08-04T10:55:18.762Z,33.76
2022-08-04T10:58:07.551Z,33.68
2022-08-04T11:00:38.894Z,33.29
2022-08-04T11:03:27.071Z,33.13
2022-08-04T11:05:55.807Z,32.91
2022-08-04T11:08:37.792Z,32.76
2022-08-04T11:12:00.832Z,32.98
2022-08-04T11:14:47.646Z,33.67
2022-08-04T11:17:26.395Z,34.39
2022-08-04T11:20:31.763Z,34.99
2022-08-04T11:23:07.456Z,34.99
2022-08-04T11:25:57.481Z,34.22
2022-08-04T11:28:32.237Z,34.10
2022-08-04T11:31:08.204Z,34.12
2022-08-04T11:33:43.674Z,34.09
2022-08-04T11:36:20.998Z,33.91
2022-08-04T11:39:04.856Z,33.75
2022-08-04T11:41:53.587Z,33.83
2022-08-04T11:44:31.799Z,33.65
2022-08-04T11:47:08.822Z,33.74
2022-08-04T11:49:57.561Z,33.54
2022-08-04T11:52:27.106Z,33.46
2022-08-04T11:54:55.470Z,33.26
2022-08-04T11:57:36.299Z,33.00
2022-08-04T12:00:12.887Z,32.73
2022-08-04T12:02:49.701Z,32.75
2022-08-04T12:05:35.614Z,32.62
2022-08-04T12:08:09.378Z,32.95
2022-08-04T12:11:25.170Z,33.64
2022-08-04T12:14:16.335Z,33.66
2022-08-04T12:16:52.767Z,33.63
2022-08-04T12:19:41.975Z,33.60
2022-08-04T12:22:22.569Z,33.67
2022-08-04T12:25:00.055Z,34.23
2022-08-04T12:27:49.397Z,34.13
2022-08-04T12:30:59.157Z,34.34
2022-08-04T12:33:10.877Z,34.26
2022-08-04T12:36:10.304Z,34.10
2022-08-04T12:38:35.438Z,34.41
2022-08-04T12:41:05.438Z,34.74
2022-08-04T12:43:41.106Z,34.71
2022-08-04T12:46:10.637Z,34.26
2022-08-04T12:48:39.434Z,34.43
2022-08-04T12:52:06.866Z,34.64
2022-08-04T12:53:57.472Z,34.71
2022-08-04T12:56:28.566Z,34.81
2022-08-04T12:59:03.363Z,34.88
2022-08-04T13:02:07.366Z,34.90
2022-08-04T13:04:21.931Z,34.91
2022-08-04T13:07:07.862Z,34.72
2022-08-04T13:09:37.788Z,34.72
2022-08-04T13:12:12.198Z,34.53
2022-08-04T13:14:44.550Z,34.08
2022-08-04T13:17:12.520Z,34.15
2022-08-04T13:19:45.633Z,34.11
2022-08-04T13:22:16.408Z,33.83
2022-08-04T13:25:18.005Z,33.77
2022-08-04T13:27:43.218Z,33.63
2022-08-04T13:30:14.745Z,33.55
2022-08-04T13:32:57.421Z,33.52
2022-08-04T13:35:55.303Z,33.58
2022-08-04T13:38:15.315Z,33.51
2022-08-04T13:40:44.115Z,33.50
2022-08-04T13:44:15.558Z,33.52
2022-08-04T13:46:34.127Z,32.98
2022-08-04T13:51:59.132Z,32.85
2022-08-04T13:54:47.512Z,32.88
2022-08-04T13:57:30.295Z,32.91
2022-08-04T14:00:06.930Z,32.98
2022-08-04T14:02:45.235Z,32.94
2022-08-04T14:05:18.799Z,33.10
2022-08-04T14:07:50.861Z,33.16
2022-08-04T14:10:18.083Z,33.05
2022-08-04T14:12:49.557Z,33.08
2022-08-04T14:16:02.950Z,32.98
2022-08-04T14:18:32.495Z,32.77
2022-08-04T14:21:10.744Z,32.79
2022-08-04T14:23:46.960Z,32.68
2022-08-04T14:26:34.071Z,32.61
2022-08-04T14:29:26.742Z,32.57
2022-08-04T14:32:05.580Z,32.36
2022-08-04T14:34:41.318Z,32.21
2022-08-04T14:37:16.547Z,32.18
2022-08-04T14:40:17.296Z,32.17
2022-08-04T14:42:54.674Z,32.13
2022-08-04T14:45:54.961Z,32.21
2022-08-04T14:48:22.243Z,32.24
2022-08-04T14:50:50.461Z,32.07
2022-08-04T14:53:22.562Z,31.96
2022-08-04T14:55:51.953Z,32.03
2022-08-04T14:58:35.374Z,31.96
2022-08-04T15:01:11.844Z,31.71
2022-08-04T15:03:50.379Z,31.58
2022-08-04T15:06:27.599Z,31.49
2022-08-04T15:08:57.117Z,31.58
2022-08-04T15:11:24.782Z,31.52
2022-08-04T15:13:56.619Z,31.42
2022-08-04T15:16:25.870Z,31.47
2022-08-04T15:18:54.755Z,31.36
2022-08-04T15:21:26.026Z,31.50
2022-08-04T15:23:52.860Z,31.44
2022-08-04T15:26:33.927Z,31.52
2022-08-04T15:29:16.645Z,31.45
2022-08-04T15:32:06.779Z,31.33
2022-08-04T15:34:48.316Z,31.35
2022-08-04T15:37:29.624Z,31.28
2022-08-04T15:40:04.442Z,31.21
2022-08-04T15:42:46.562Z,31.16
2022-08-04T15:46:43.440Z,31.11
2022-08-04T15:48:13.910Z,31.05
2022-08-04T15:51:00.615Z,31.04
2022-08-04T15:54:03.712Z,30.99
2022-08-04T15:56:26.537Z,31.01
2022-08-04T15:58:55.393Z,30.98
2022-08-04T16:01:22.977Z,31.02
2022-08-04T16:04:00.973Z,30.95
2022-08-04T16:06:29.882Z,30.93
2022-08-04T16:09:05.093Z,30.86
2022-08-04T16:11:33.365Z,30.88
2022-08-04T16:14:00.312Z,30.84
2022-08-04T16:16:31.780Z,30.71
2022-08-04T16:19:35.499Z,30.79
2022-08-04T16:22:04.200Z,30.69
2022-08-04T16:24:39.150Z,30.60
2022-08-04T16:27:08.377Z,30.45
2022-08-04T16:29:44.265Z,30.60
2022-08-04T16:32:13.939Z,30.44
2022-08-04T16:35:01.480Z,30.34
2022-08-04T16:37:36.129Z,30.49
2022-08-04T16:40:34.718Z,30.49
2022-08-04T16:43:17.829Z,30.40
2022-08-04T16:45:49.473Z,30.32
2022-08-04T16:48:18.675Z,30.09
2022-08-04T16:50:50.655Z,30.14
2022-08-04T16:53:51.590Z,29.79
2022-08-04T16:56:09.050Z,29.75
2022-08-04T16:58:36.914Z,29.83
2022-08-04T17:01:21.790Z,29.76
2022-08-04T17:04:05.114Z,29.64
2022-08-04T17:06:36.377Z,29.60
2022-08-04T17:09:10.771Z,29.62
2022-08-04T17:11:37.520Z,29.33
2022-08-04T17:14:06.123Z,29.18
2022-08-04T17:16:41.599Z,29.14
2022-08-04T17:19:19.962Z,29.07
2022-08-04T17:21:53.419Z,28.73
2022-08-04T17:24:20.215Z,28.55
2022-08-04T17:26:54.297Z,28.44
2022-08-04T17:29:43.379Z,28.42
2022-08-04T17:32:21.218Z,28.03
2022-08-04T17:34:54.456Z,27.95
2022-08-04T17:37:39.950Z,27.92
2022-08-04T17:40:22.629Z,27.75
2022-08-04T17:44:01.390Z,27.40
2022-08-04T17:46:30.255Z,27.42
2022-08-04T17:49:18.425Z,27.29
2022-08-04T17:52:04.738Z,27.14
2022-08-04T17:54:37.147Z,27.05
2022-08-04T17:57:22.773Z,27.00
2022-08-04T17:59:56.389Z,26.85
2022-08-04T18:02:32.919Z,26.71
2022-08-04T18:05:07.581Z,26.61
2022-08-04T18:08:41.500Z,26.46
2022-08-04T18:10:55.401Z,26.51
2022-08-04T18:13:27.974Z,26.42
2022-08-04T18:16:03.222Z,26.34
2022-08-04T18:18:30.387Z,26.40
2022-08-04T18:20:59.891Z,26.29
2022-08-04T18:23:31.933Z,26.21
2022-08-04T18:25:59.603Z,26.14
2022-08-04T18:28:33.331Z,26.22
2022-08-04T18:31:01.505Z,26.20
2022-08-04T18:33:40.205Z,26.36
2022-08-04T18:36:33.182Z,26.35
2022-08-04T18:39:13.530Z,26.34
2022-08-04T18:42:02.408Z,26.39
2022-08-04T18:44:32.234Z,26.39
2022-08-04T18:47:19.502Z,26.49
2022-08-04T18:50:59.521Z,26.38
2022-08-04T18:52:34.293Z,26.34
2022-08-04T18:55:01.638Z,26.16
2022-08-04T18:57:59.704Z,26.14
2022-08-04T19:00:16.872Z,26.21
2022-08-04T19:02:47.528Z,26.19
2022-08-04T19:05:17.465Z,26.18
2022-08-04T19:08:02.113Z,26.20
2022-08-04T19:10:29.340Z,26.25
2022-08-04T19:12:56.511Z,26.09
2022-08-04T19:15:34.608Z,26.34
2022-08-04T19:18:02.303Z,26.23
2022-08-04T19:20:33.751Z,26.37
2022-08-04T19:24:28.951Z,26.22
2022-08-04T19:26:01.912Z,26.39
2022-08-04T19:28:35.056Z,26.42
2022-08-04T19:31:07.458Z,26.41
2022-08-04T19:33:59.612Z,26.47
2022-08-04T19:36:27.572Z,26.42
2022-08-04T19:38:55.814Z,26.35
2022-08-04T19:41:22.781Z,26.25
2022-08-04T19:43:53.415Z,26.12
2022-08-04T19:46:21.562Z,26.23
2022-08-04T19:48:59.745Z,26.13
2022-08-04T19:51:29.170Z,26.15
2022-08-04T19:56:48.725Z,26.02
2022-08-04T19:59:16.605Z,26.14
2022-08-04T20:04:31.336Z,25.97
2022-08-04T20:06:58.229Z,25.93
2022-08-04T20:09:27.058Z,25.93
2022-08-04T20:11:55.733Z,25.95
2022-08-04T20:14:31.096Z,25.99
2022-08-04T20:17:00.542Z,25.98
2022-08-04T20:19:27.684Z,25.92
2022-08-04T20:21:57.655Z,25.92
2022-08-04T20:24:37.684Z,25.76
2022-08-04T20:27:14.610Z,25.87
2022-08-04T20:29:48.662Z,25.94
2022-08-04T20:32:22.301Z,25.73
2022-08-04T20:34:51.377Z,25.92
2022-08-04T20:37:20.683Z,25.82
2022-08-04T20:39:54.871Z,25.64
2022-08-04T20:42:33.719Z,25.78
2022-08-04T20:45:01.316Z,25.49
2022-08-04T20:47:33.673Z,25.57
2022-08-04T20:50:04.521Z,25.60
2022-08-04T20:52:33.172Z,25.37
2022-08-04T20:55:04.806Z,25.52
2022-08-04T20:57:47.452Z,25.48
2022-08-04T21:00:17.683Z,25.35
2022-08-04T21:02:56.241Z,25.32
2022-08-04T21:05:23.572Z,25.14
2022-08-04T21:07:56.732Z,25.21
2022-08-04T21:10:27.408Z,25.17
2022-08-04T21:12:54.956Z,25.14
2022-08-04T21:15:25.634Z,25.12
2022-08-04T21:17:59.320Z,25.19
2022-08-04T21:20:31.627Z,25.08
2022-08-04T21:23:02.228Z,25.13
2022-08-04T21:25:30.694Z,25.17
2022-08-04T21:27:58.725Z,25.06
2022-08-04T21:30:28.657Z,25.04
2022-08-04T21:32:55.719Z,24.96
2022-08-04T21:35:37.729Z,24.85
2022-08-04T21:38:17.256Z,24.98
2022-08-04T21:41:01.403Z,24.82
2022-08-04T21:43:29.932Z,24.85
2022-08-04T21:46:09.515Z,24.88
2022-08-04T21:48:36.242Z,24.84
2022-08-04T21:52:00.043Z,24.86
2022-08-04T21:54:17.065Z,24.84
2022-08-04T21:56:49.233Z,24.86
2022-08-04T21:59:28.407Z,24.80
2022-08-04T22:01:57.973Z,24.78
2022-08-04T22:04:27.348Z,24.74
2022-08-04T22:06:54.629Z,24.75
2022-08-04T22:09:21.876Z,24.73
2022-08-04T22:11:51.563Z,24.47
2022-08-04T22:14:27.219Z,24.55
2022-08-04T22:16:56.613Z,24.57
2022-08-04T22:19:40.993Z,24.53
2022-08-04T22:22:12.653Z,24.57
2022-08-04T22:24:51.883Z,24.39
2022-08-04T22:27:36.971Z,24.47
2022-08-04T22:30:16.906Z,24.47
2022-08-04T22:32:47.051Z,24.47
2022-08-04T22:35:35.654Z,24.47
2022-08-04T22:38:06.121Z,24.41
2022-08-04T22:40:34.619Z,24.44
2022-08-04T22:43:03.125Z,24.35
2022-08-04T22:45:43.327Z,24.23
2022-08-04T22:48:11.647Z,24.30
2022-08-04T22:50:38.424Z,24.20
2022-08-04T22:53:06.601Z,24.19
2022-08-04T22:56:07.433Z,24.34
2022-08-04T22:58:20.225Z,24.17
2022-08-04T23:00:52.916Z,24.11
2022-08-04T23:03:36.977Z,24.08
2022-08-04T23:06:10.674Z,24.05
2022-08-04T23:08:38.865Z,24.02
2022-08-04T23:11:10.738Z,23.90
2022-08-04T23:13:37.889Z,23.92
2022-08-04T23:16:06.531Z,23.97
2022-08-04T23:18:37.183Z,23.89
2022-08-04T23:21:10.125Z,23.89
2022-08-04T23:23:45.213Z,23.78
2022-08-04T23:26:21.877Z,23.78
2022-08-04T23:28:55.882Z,23.82
2022-08-04T23:31:22.964Z,23.63
2022-08-04T23:33:51.046Z,23.74
2022-08-04T23:36:19.142Z,23.75
2022-08-04T23:38:59.667Z,23.69
2022-08-04T23:41:54.790Z,23.75
2022-08-04T23:44:23.476Z,23.71
2022-08-04T23:47:00.759Z,23.62
2022-08-04T23:49:40.743Z,23.59
2022-08-04T23:52:15.747Z,23.50
2022-08-04T23:54:54.693Z,23.54
2022-08-04T23:57:22.135Z,23.36
